CST,Max TemperatureF,Mean TemperatureF,Min TemperatureF,Max Dew PointF,MeanDew PointF,Min DewpointF,Max Humidity, Mean Humidity, Min Humidity, Max Sea Level PressureIn, Mean Sea Level PressureIn, Min Sea Level PressureIn, Max VisibilityMiles, Mean VisibilityMiles, Min VisibilityMiles, Max Wind SpeedMPH, Mean Wind SpeedMPH, Max Gust SpeedMPH,PrecipitationIn, CloudCover, Events, WindDirDegrees
2012-12-1,69,58,48,60,56,48,100,87,68,30.07,29.99,29.87,10,8,1,28,11,36,0.00,4,,182
2012-12-2,73,68,62,62,60,58,94,81,59,30.06,29.98,29.94,10,10,10,15,11,25,0.00,2,,197
2012-12-3,73,68,63,59,57,55,84,72,53,29.94,29.91,29.83,10,10,10,26,16,39,0.00,2,,189
2012-12-4,64,52,39,61,46,33,100,76,44,30.32,30.09,29.93,10,8,2,17,10,23,0.83,5,Rain-Thunderstorm,354
2012-12-5,57,45,33,37,33,30,89,64,36,30.34,30.22,30.07,10,10,10,10,5,,0.00,0,,89
2012-12-6,62,49,36,49,42,33,96,79,52,30.05,29.93,29.84,10,10,7,10,5,,0.00,1,,167
2012-12-7,57,51,45,54,52,45,100,95,83,29.89,29.84,29.80,10,7,5,8,3,,0.00,8,Rain,174
2012-12-8,57,52,48,54,51,48,100,95,81,29.93,29.87,29.81,10,5,0,9,4,,0.01,7,Fog,27
2012-12-9,54,42,28,54,46,18,100,92,66,30.04,29.84,29.74,10,6,2,17,7,24,0.17,7,Rain-Thunderstorm,349
2012-12-10,32,26,19,21,18,15,92,72,61,30.13,30.07,30.02,10,10,10,16,11,21,0.00,3,,311
2012-12-11,45,31,17,22,16,13,96,63,30,30.24,30.16,30.11,10,10,10,10,4,,0.00,0,,206
2012-12-12,48,34,21,21,17,12,75,53,23,30.33,30.26,30.23,10,10,4,16,5,23,0.00,0,,179
2012-12-13,55,42,30,25,21,18,64,45,29,30.27,30.22,30.16,10,10,10,21,11,29,0.00,0,,184
2012-12-14,53,44,34,45,31,21,100,61,31,30.17,30.03,29.80,10,10,6,18,8,26,0.13,5,Rain,171
2012-12-15,59,52,46,49,42,35,100,71,48,29.78,29.73,29.69,10,10,9,18,14,29,0.09,2,Rain,206
2012-12-16,63,53,43,38,36,34,82,60,37,29.74,29.69,29.60,10,10,10,12,5,,0.00,0,,240
2012-12-17,44,39,34,40,37,32,100,93,73,29.83,29.76,29.69,10,5,0,10,6,,0.00,5,Fog,293
2012-12-18,60,46,32,36,34,31,96,69,39,29.85,29.79,29.75,10,10,8,16,6,22,0.00,0,,220
2012-12-19,63,50,37,59,49,33,90,81,70,29.82,29.64,29.43,10,10,10,26,9,46,0.00,4,Rain-Thunderstorm,156
2012-12-20,57,44,30,42,24,14,100,62,48,30.31,29.95,29.43,10,10,5,29,20,47,0.01,4,Rain,287
2012-12-21,48,34,21,22,18,15,81,55,28,30.39,30.32,30.27,10,10,10,6,3,,0.00,0,,221
2012-12-22,57,42,27,32,20,13,75,43,17,30.26,30.13,29.99,10,10,10,16,5,24,0.00,0,,199
2012-12-23,60,50,37,48,43,33,93,76,57,29.96,29.87,29.79,10,10,10,13,7,16,0.00,2,,221
2012-12-24,41,32,24,32,26,22,96,82,57,30.03,29.98,29.85,9,6,2,14,7,,0.00,1,,5
2012-12-25,30,27,24,24,21,18,85,77,69,30.04,29.98,29.93,10,8,5,25,15,34,0.00,6,,36
2012-12-26,33,25,17,20,17,12,89,76,59,30.21,30.14,30.05,10,10,10,22,13,26,0.00,4,,360
2012-12-27,37,29,21,29,23,18,89,77,53,30.12,30.02,29.94,10,10,9,17,7,,0.00,1,,146
2012-12-28,36,30,23,32,29,16,100,91,74,30.09,29.96,29.89,10,6,0,13,5,,0.04,7,Fog-Snow,306
2012-12-29,32,24,16,20,16,13,92,79,61,30.44,30.31,30.11,10,9,5,10,7,,0.00,2,,283
2012-12-30,39,28,16,24,19,14,92,69,43,30.45,30.36,30.22,10,9,6,16,5,,0.00,0,,181
2012-12-31,37,34,32,37,35,24,100,98,62,30.22,30.08,29.97,10,4,0,14,6,,0.77,8,Fog-Rain,158